A- A+ FrançaisEnglishEspañol中国

le plus proche LFBT Tarbes-Lourdes-PyrénéesLFOH Le-Havre-OctevilleLFAQ Albert-BrayLFAG Peronne-Saint-Quentin

manche à air

La météo aéronautique pour les pilotes, la préparation du vol avec les METAR (METeorological Aerodrome Report, message d'observation des conditions météorologiques pour l'aviation) et Les TAF (Terminal Aerodrome Forecast : message de prévision à court terme des conditions météorologiques pour l'aviation). Et les autres ressources comme les VAC (Visual Approch Chart) et les NOTAM (Notice To Airman) pour préprer les vols.

Aéroport Bechar Ouakda (Boudghene?) (Algérie) / OACI DAOR/ IATA CBH

L'altitude de l'aéroport Bechar Ouakda (Boudghene?) est de 811 m=2661 ft. Il est situé à proximité de Béchar (Algérie). La météo générale à 5 jours est disponible pour Bechar situé à 6 km.

METAR de l'aéroport Bechar Ouakda (Boudghene?) - DAOR

DAOR 072300Z 31002KT CAVOK 06/M05 Q1028

Décodage du METAR de l'aéroport Bechar Ouakda (Boudghene?) (DZ)

METAR émis par DAOR le mercredi 8 janvier 2020 à 23:00 heure TU. Attention ce METAR est obsolète car il a été émis il y a 3 heure et 2 minutes.

La visibilité est de supérieure à 10 km=supérieure à 6.2 sm.

La température est de 6°C=43 °F et le point rosée est de -5°C=23 °F . Ce qui correspond à 45% d'humidité relative.

Le QNH est de 1028 hPa=30.36 inHg

Vent de 2 kt=4 km/h, orienté à 310°.

Pas de nuages.

TAF de l'aéroport Bechar Ouakda (Boudghene?) - DAOR

DAOR 072000Z 0721/0806 06006KT CAVOK

DAOR 072000Z 0721/0806 06006KT visibilité supérieure à 10km, aucun nuage à une hauteur inférieure à 5000 ft ou sous l'altitude minimale de secteur et aucun cumulonimbus ou cumulus bourgeonnant, quelle que soit leur altitude

Aéroport à proximité de Bechar Ouakda (Boudghene?)

Météo générale à 5 jours à Bechar (6 km)DAOC Aéroport Bechar Oukda (8 km)GMFK Aéroport Er-Rachidia (204 km)DAAY Aéroport Mecheria (283 km)GMFZ Aéroport Taza (328 km)GMFI Aéroport Ifrane (340 km)GMFO Aéroport Oujda Angads (351 km)

Vue aérienne de l'aéroport Bechar Ouakda (Boudghene?)

NOTAM de l'aéroport Bechar Ouakda (Boudghene?)

Les NOTAM sont fournis sans aucune garantie de leur actualité. Le pilote est le seul responsable de la vérification de sa validité avant de l'utiliser opérationnellement pour préparer un vol ou l'utiliser lors de sa navigation.

Pas de NOTAM

Sources des données